createdAt,value
2022-08-25T00:01:49.779Z,99987.66
2022-08-25T00:04:18.332Z,99993.28
2022-08-25T00:06:51.140Z,99987.38
2022-08-25T00:09:21.657Z,99986.59
2022-08-25T00:11:49.335Z,99986.78
2022-08-25T00:14:18.263Z,99986.50
2022-08-25T00:16:45.812Z,99989.69
2022-08-25T00:19:15.582Z,99997.41
2022-08-25T00:21:46.572Z,100005.13
2022-08-25T00:24:15.937Z,100004.25
2022-08-25T00:26:53.789Z,100002.31
2022-08-25T00:29:22.146Z,99999.81
2022-08-25T00:31:49.323Z,99998.09
2022-08-25T00:34:19.312Z,99993.97
2022-08-25T00:36:48.901Z,99987.72
2022-08-25T00:39:22.223Z,99990.94
2022-08-25T00:41:54.139Z,99984.34
2022-08-25T00:44:24.747Z,99981.09
2022-08-25T00:46:56.489Z,99986.00
2022-08-25T00:49:38.408Z,99977.16
2022-08-25T00:52:09.464Z,99982.88
2022-08-25T00:54:40.596Z,99979.84
2022-08-25T00:57:08.918Z,99974.41
2022-08-25T00:59:42.010Z,99982.78
2022-08-25T01:02:09.726Z,99978.19
2022-08-25T01:04:48.873Z,99984.59
2022-08-25T01:07:20.180Z,99990.38
2022-08-25T01:09:52.124Z,99976.72
2022-08-25T01:12:22.643Z,99982.41
2022-08-25T01:14:53.943Z,99981.59
2022-08-25T01:17:24.067Z,99977.75
2022-08-25T01:19:51.089Z,99981.47
2022-08-25T01:22:18.532Z,99978.34
2022-08-25T01:24:50.015Z,99976.75
2022-08-25T01:27:17.221Z,99976.09
2022-08-25T01:29:50.533Z,99972.16
2022-08-25T01:32:21.339Z,99975.97
2022-08-25T01:34:51.904Z,99975.16
2022-08-25T01:37:19.667Z,99980.72
2022-08-25T01:39:49.866Z,99971.56
2022-08-25T01:42:28.371Z,99981.53
2022-08-25T01:45:01.665Z,99973.50
2022-08-25T01:47:29.820Z,99975.16
2022-08-25T01:50:00.613Z,99975.84
2022-08-25T01:52:37.314Z,99982.84
2022-08-25T01:55:05.214Z,99967.25
2022-08-25T01:57:37.903Z,99968.59
2022-08-25T02:00:06.582Z,99959.44
2022-08-25T02:02:42.023Z,99965.44
2022-08-25T02:05:14.178Z,99960.69
2022-08-25T02:07:44.305Z,99969.44
2022-08-25T02:10:12.881Z,99962.72
2022-08-25T02:12:40.719Z,99963.19
2022-08-25T02:15:08.766Z,99954.84
2022-08-25T02:17:36.005Z,99945.31
2022-08-25T02:20:04.729Z,99943.63
2022-08-25T02:22:34.666Z,99950.03
2022-08-25T02:25:02.042Z,99961.03
2022-08-25T02:27:29.093Z,99956.66
2022-08-25T02:29:59.954Z,99958.53
2022-08-25T02:32:27.362Z,99945.41
2022-08-25T02:34:54.795Z,99957.94
2022-08-25T02:37:27.428Z,99952.31
2022-08-25T02:39:56.859Z,99949.88
2022-08-25T02:42:27.573Z,99951.59
2022-08-25T02:45:01.143Z,99947.06
2022-08-25T02:47:31.515Z,99955.81
2022-08-25T02:49:58.876Z,99947.84
2022-08-25T02:52:26.123Z,99936.28
2022-08-25T02:54:53.342Z,99944.50
2022-08-25T02:57:23.539Z,99936.72
2022-08-25T02:59:51.320Z,99941.50
2022-08-25T03:02:18.682Z,99939.13
2022-08-25T03:04:52.154Z,99945.00
2022-08-25T03:07:22.336Z,99948.53
2022-08-25T03:09:52.735Z,99945.88
2022-08-25T03:12:19.913Z,99940.97
2022-08-25T03:14:54.217Z,99948.63
2022-08-25T03:17:21.556Z,99948.97
2022-08-25T03:19:52.203Z,99944.41
2022-08-25T03:22:19.965Z,99946.25
2022-08-25T03:24:47.278Z,99947.03
2022-08-25T03:27:18.161Z,99949.66
2022-08-25T03:29:45.506Z,99949.66
2022-08-25T03:32:15.389Z,99952.22
2022-08-25T03:34:45.705Z,99956.19
2022-08-25T03:37:32.564Z,99949.16
2022-08-25T03:40:00.321Z,99952.94
2022-08-25T03:42:27.563Z,99953.56
2022-08-25T03:44:55.091Z,99953.47
2022-08-25T03:47:27.901Z,99957.91
2022-08-25T03:49:55.706Z,99952.03
2022-08-25T03:52:26.375Z,99958.97
2022-08-25T03:54:57.054Z,99958.66
2022-08-25T03:57:28.201Z,99955.38
2022-08-25T03:59:59.299Z,99954.25
2022-08-25T04:02:30.719Z,99964.75
2022-08-25T04:05:01.380Z,99958.72
2022-08-25T04:07:30.497Z,99956.91
2022-08-25T04:10:08.456Z,99956.06
2022-08-25T04:12:36.286Z,99960.41
2022-08-25T04:15:04.866Z,99958.72
2022-08-25T04:17:32.513Z,99962.94
2022-08-25T04:20:01.482Z,99968.91
2022-08-25T04:22:36.858Z,99968.56
2022-08-25T04:25:05.269Z,99970.47
2022-08-25T04:27:36.187Z,99969.97
2022-08-25T04:30:07.543Z,99980.84
2022-08-25T04:32:36.144Z,99969.44
2022-08-25T04:35:04.187Z,99973.13
2022-08-25T04:37:35.698Z,99967.16
2022-08-25T04:40:07.486Z,99972.69
2022-08-25T04:42:35.214Z,99984.53
2022-08-25T04:45:05.741Z,99981.22
2022-08-25T04:47:41.713Z,99982.25
2022-08-25T04:50:09.158Z,99972.59
2022-08-25T04:52:39.508Z,99978.81
2022-08-25T04:55:06.933Z,99977.97
2022-08-25T04:57:34.601Z,99972.16
2022-08-25T05:00:05.269Z,99974.09
2022-08-25T05:02:33.069Z,99980.75
2022-08-25T05:05:00.834Z,99977.66
2022-08-25T05:07:47.295Z,99977.97
2022-08-25T05:10:15.838Z,99981.91
2022-08-25T05:12:50.974Z,99983.66
2022-08-25T05:15:26.228Z,99980.75
2022-08-25T05:17:56.066Z,99975.09
2022-08-25T05:20:24.006Z,99975.97
2022-08-25T05:22:54.198Z,99977.19
2022-08-25T05:25:24.376Z,99970.31
2022-08-25T05:27:52.620Z,99972.00
2022-08-25T05:30:20.307Z,99977.34
2022-08-25T05:32:53.192Z,99973.34
2022-08-25T05:35:26.928Z,99972.09
2022-08-25T05:37:54.177Z,99966.03
2022-08-25T05:40:24.295Z,99974.28
2022-08-25T05:43:13.330Z,99974.47
2022-08-25T05:45:41.751Z,99981.63
2022-08-25T05:48:12.788Z,99979.16
2022-08-25T05:50:42.813Z,99973.19
2022-08-25T05:53:15.987Z,99982.56
2022-08-25T05:55:44.559Z,99970.84
2022-08-25T05:58:11.864Z,99974.03
2022-08-25T06:00:41.541Z,99977.53
2022-08-25T06:03:11.546Z,99984.03
2022-08-25T06:05:39.582Z,99980.56
2022-08-25T06:08:07.255Z,99985.59
2022-08-25T06:10:34.965Z,99987.22
2022-08-25T06:13:09.061Z,99986.88
2022-08-25T06:15:38.695Z,99991.09
2022-08-25T06:18:07.084Z,99996.22
2022-08-25T06:20:37.404Z,99995.53
2022-08-25T06:23:05.455Z,99991.84
2022-08-25T06:25:39.658Z,99994.28
2022-08-25T06:28:08.267Z,99998.63
2022-08-25T06:30:38.699Z,99993.53
2022-08-25T06:33:11.992Z,99999.66
2022-08-25T06:35:45.087Z,99992.00
2022-08-25T06:38:15.546Z,99999.13
2022-08-25T06:40:49.397Z,99990.63
2022-08-25T06:43:23.436Z,99989.50
2022-08-25T06:45:53.945Z,99998.34
2022-08-25T06:48:21.269Z,99992.47
2022-08-25T06:50:48.941Z,99993.94
2022-08-25T06:53:19.797Z,99994.72
2022-08-25T06:55:57.331Z,99991.34
2022-08-25T06:58:28.518Z,99989.78
2022-08-25T07:01:20.078Z,99992.81
2022-08-25T07:03:54.612Z,99993.91
2022-08-25T07:06:23.200Z,99999.47
2022-08-25T07:08:53.600Z,99999.47
2022-08-25T07:11:26.467Z,100003.50
2022-08-25T07:13:56.890Z,99997.69
2022-08-25T07:16:27.458Z,100003.50
2022-08-25T07:19:01.631Z,100008.78
2022-08-25T07:21:35.622Z,100006.53
2022-08-25T07:24:07.634Z,100000.66
2022-08-25T07:26:39.629Z,99998.75
2022-08-25T07:29:11.877Z,99996.84
2022-08-25T07:31:39.684Z,100000.81
2022-08-25T07:34:12.749Z,100005.63
2022-08-25T07:36:44.110Z,100004.47
2022-08-25T07:39:17.295Z,100002.19
2022-08-25T07:41:51.972Z,100008.88
2022-08-25T07:44:21.819Z,100008.22
2022-08-25T07:46:51.856Z,100010.53
2022-08-25T07:49:26.358Z,100001.16
2022-08-25T07:52:06.912Z,100001.97
2022-08-25T07:54:38.560Z,100011.88
2022-08-25T07:57:08.611Z,99996.63
2022-08-25T07:59:43.166Z,99998.53
2022-08-25T08:02:19.083Z,100004.81
2022-08-25T08:04:49.284Z,99999.31
2022-08-25T08:07:19.257Z,99993.44
2022-08-25T08:10:25.737Z,99985.59
2022-08-25T08:12:55.486Z,99988.41
2022-08-25T08:15:30.046Z,99988.03
2022-08-25T08:17:59.384Z,99980.19
2022-08-25T08:20:30.839Z,99979.34
2022-08-25T08:23:18.967Z,99987.50
2022-08-25T08:25:49.529Z,99991.75
2022-08-25T08:28:20.029Z,99989.38
2022-08-25T08:30:55.341Z,99978.34
2022-08-25T08:33:24.250Z,99979.88
2022-08-25T08:35:59.799Z,99983.00
2022-08-25T08:38:36.107Z,99975.94
2022-08-25T08:41:23.464Z,99975.16
2022-08-25T08:46:52.657Z,99975.56
2022-08-25T08:49:53.386Z,99970.44
2022-08-25T08:52:24.909Z,99974.31
2022-08-25T08:54:59.001Z,99973.16
2022-08-25T08:57:38.221Z,99964.09
2022-08-25T09:00:12.744Z,99975.47
2022-08-25T09:03:03.210Z,99970.75
2022-08-25T09:05:46.618Z,99968.38
2022-08-25T09:08:20.381Z,99964.19
2022-08-25T09:11:16.265Z,99967.25
2022-08-25T09:14:05.114Z,99959.41
2022-08-25T09:16:58.954Z,99958.16
2022-08-25T09:19:44.618Z,99961.69
2022-08-25T09:22:34.971Z,99953.03
2022-08-25T09:25:21.989Z,99955.38
2022-08-25T09:28:00.000Z,99962.44
2022-08-25T09:30:47.740Z,99959.69
2022-08-25T09:33:20.867Z,99947.94
2022-08-25T09:35:50.082Z,99947.09
2022-08-25T09:38:21.628Z,99946.72
2022-08-25T09:40:54.474Z,99945.97
2022-08-25T09:43:32.514Z,99950.63
2022-08-25T09:46:08.997Z,99944.34
2022-08-25T09:48:45.433Z,99946.25
2022-08-25T09:51:29.185Z,99944.28
2022-08-25T09:54:10.502Z,99942.69
2022-08-25T09:56:52.062Z,99932.50
2022-08-25T09:59:34.483Z,99929.75
2022-08-25T10:02:30.074Z,99935.66
2022-08-25T10:05:17.149Z,99934.88
2022-08-25T10:07:55.797Z,99929.81
2022-08-25T10:10:33.834Z,99932.94
2022-08-25T10:13:17.070Z,99922.75
2022-08-25T10:16:18.053Z,99923.94
2022-08-25T10:19:07.850Z,99935.28
2022-08-25T10:21:37.594Z,99927.06
2022-08-25T10:24:15.229Z,99926.69
2022-08-25T10:26:46.035Z,99927.50
2022-08-25T10:29:32.509Z,99927.06
2022-08-25T10:32:10.254Z,99923.16
2022-08-25T10:34:45.309Z,99915.31
2022-08-25T10:37:27.615Z,99919.22
2022-08-25T10:40:00.403Z,99915.38
2022-08-25T10:42:34.145Z,99917.84
2022-08-25T10:45:21.765Z,99910.81
2022-08-25T10:48:07.298Z,99917.13
2022-08-25T10:50:38.098Z,99906.19
2022-08-25T10:53:09.090Z,99913.28
2022-08-25T10:55:59.921Z,99903.50
2022-08-25T10:58:36.676Z,99911.75
2022-08-25T11:01:11.519Z,99896.84
2022-08-25T11:03:42.421Z,99896.84
2022-08-25T11:06:41.779Z,99892.19
2022-08-25T11:09:28.663Z,99886.72
2022-08-25T11:12:16.175Z,99884.44
2022-08-25T11:14:55.683Z,99889.19
2022-08-25T11:17:38.471Z,99885.66
2022-08-25T11:20:16.323Z,99879.00
2022-08-25T11:22:52.212Z,99872.69
2022-08-25T11:25:24.927Z,99866.41
2022-08-25T11:28:07.225Z,99864.44
2022-08-25T11:30:41.558Z,99864.38
2022-08-25T11:33:13.703Z,99861.63
2022-08-25T11:35:50.552Z,99862.78
2022-08-25T11:38:44.718Z,99849.81
2022-08-25T11:41:15.358Z,99852.97
2022-08-25T11:43:53.725Z,99853.34
2022-08-25T11:46:27.824Z,99848.19
2022-08-25T11:48:58.778Z,99844.56
2022-08-25T11:51:45.485Z,99842.19
2022-08-25T11:54:24.643Z,99835.91
2022-08-25T11:57:00.296Z,99836.69
2022-08-25T11:59:47.694Z,99831.19
2022-08-25T12:02:35.902Z,99829.59
2022-08-25T12:05:32.237Z,99828.00
2022-08-25T12:08:07.485Z,99814.63
2022-08-25T12:10:53.613Z,99820.50
2022-08-25T12:13:26.742Z,99814.16
2022-08-25T12:15:57.129Z,99812.97
2022-08-25T12:18:27.216Z,99807.06
2022-08-25T12:20:55.343Z,99817.28
2022-08-25T12:23:29.943Z,99806.22
2022-08-25T12:26:05.099Z,99806.94
2022-08-25T12:28:44.945Z,99818.66
2022-08-25T12:31:21.387Z,99814.56
2022-08-25T12:33:52.213Z,99809.44
2022-08-25T12:36:30.672Z,99807.81
2022-08-25T12:39:27.660Z,99810.44
2022-08-25T12:41:59.936Z,99808.84
2022-08-25T12:44:48.615Z,99811.28
2022-08-25T12:47:23.493Z,99812.94
2022-08-25T12:50:11.297Z,99809.97
2022-08-25T12:52:46.055Z,99813.34
2022-08-25T12:55:14.881Z,99805.16
2022-08-25T12:58:00.693Z,99807.13
2022-08-25T13:00:29.775Z,99794.44
2022-08-25T13:03:05.402Z,99796.75
2022-08-25T13:05:52.472Z,99795.00
2022-08-25T13:08:33.809Z,99800.75
2022-08-25T13:11:04.340Z,99799.56
2022-08-25T13:13:51.427Z,99796.81
2022-08-25T13:16:28.412Z,99796.38
2022-08-25T13:18:57.439Z,99793.22
2022-08-25T13:21:35.603Z,99795.56
2022-08-25T13:24:40.404Z,99791.22
2022-08-25T13:27:13.047Z,99794.03
2022-08-25T13:29:58.760Z,99796.41
2022-08-25T13:32:36.421Z,99787.03
2022-08-25T13:35:14.290Z,99784.22
2022-08-25T13:37:41.715Z,99781.47
2022-08-25T13:40:25.901Z,99779.94
2022-08-25T13:42:59.052Z,99783.31
2022-08-25T13:45:34.098Z,99774.38
2022-08-25T13:48:22.969Z,99773.59
2022-08-25T13:51:10.943Z,99773.16
2022-08-25T13:53:48.413Z,99771.06
2022-08-25T13:56:31.150Z,99761.72
2022-08-25T13:59:09.991Z,99755.09
2022-08-25T14:01:49.498Z,99754.72
2022-08-25T14:04:26.652Z,99747.97
2022-08-25T14:07:12.274Z,99757.81
2022-08-25T14:09:49.801Z,99758.19
2022-08-25T14:12:34.260Z,99753.00
2022-08-25T14:15:22.259Z,99759.34
2022-08-25T14:18:14.900Z,99757.00
2022-08-25T14:20:54.038Z,99758.97
2022-08-25T14:23:23.396Z,99750.78
2022-08-25T14:25:56.549Z,99757.47
2022-08-25T14:28:30.079Z,99747.59
2022-08-25T14:31:00.755Z,99745.22
2022-08-25T14:33:37.041Z,99741.31
2022-08-25T14:36:05.580Z,99738.28
2022-08-25T14:38:33.022Z,99742.25
2022-08-25T14:41:03.478Z,99741.50
2022-08-25T14:43:32.414Z,99740.13
2022-08-25T14:46:01.001Z,99731.94
2022-08-25T14:48:35.495Z,99735.53
2022-08-25T14:51:05.887Z,99729.63
2022-08-25T14:53:40.128Z,99728.53
2022-08-25T14:56:10.975Z,99724.78
2022-08-25T14:58:48.339Z,99729.50
2022-08-25T15:01:29.289Z,99727.22
2022-08-25T15:04:03.874Z,99720.97
2022-08-25T15:06:37.132Z,99729.63
2022-08-25T15:09:07.211Z,99727.66
2022-08-25T15:11:41.625Z,99730.47
2022-08-25T15:14:10.662Z,99736.03
2022-08-25T15:16:51.176Z,99728.19
2022-08-25T15:19:19.842Z,99730.47
2022-08-25T15:21:51.246Z,99731.28
2022-08-25T15:24:19.999Z,99743.53
2022-08-25T15:29:22.961Z,99732.25
2022-08-25T15:31:53.564Z,99730.69
2022-08-25T15:34:23.932Z,99721.94
2022-08-25T15:37:05.838Z,99724.41
2022-08-25T15:39:36.679Z,99720.16
2022-08-25T15:42:10.652Z,99721.75
2022-08-25T15:44:39.682Z,99714.38
2022-08-25T15:47:12.621Z,99714.34
2022-08-25T15:49:42.987Z,99714.34
2022-08-25T15:52:10.523Z,99712.75
2022-08-25T15:54:40.802Z,99715.88
2022-08-25T15:57:24.389Z,99714.78
2022-08-25T15:59:57.608Z,99716.41
2022-08-25T16:02:25.448Z,99707.31
2022-08-25T16:04:55.398Z,99705.41
2022-08-25T16:07:24.300Z,99703.44
2022-08-25T16:09:58.236Z,99702.53
2022-08-25T16:12:26.914Z,99699.75
2022-08-25T16:15:00.143Z,99703.66
2022-08-25T16:17:30.373Z,99702.53
2022-08-25T16:20:07.540Z,99706.09
2022-08-25T16:22:41.562Z,99708.09
2022-08-25T16:25:11.709Z,99704.50
2022-08-25T16:27:45.706Z,99705.69
2022-08-25T16:30:17.704Z,99700.63
2022-08-25T16:32:48.129Z,99703.53
2022-08-25T16:35:24.213Z,99701.25
2022-08-25T16:37:51.686Z,99706.06
2022-08-25T16:40:22.999Z,99706.09
2022-08-25T16:42:57.163Z,99699.84
2022-08-25T16:45:31.144Z,99706.97
2022-08-25T16:48:03.948Z,99702.31
2022-08-25T16:50:34.768Z,99703.88
2022-08-25T16:53:02.112Z,99703.97
2022-08-25T16:55:38.752Z,99701.63
2022-08-25T16:58:09.639Z,99705.16
2022-08-25T17:00:41.643Z,99709.09
2022-08-25T17:03:12.209Z,99708.72
2022-08-25T17:05:43.201Z,99707.97
2022-08-25T17:08:14.037Z,99707.19
2022-08-25T17:10:42.804Z,99706.34
2022-08-25T17:13:13.917Z,99711.09
2022-08-25T17:15:49.066Z,99709.53
2022-08-25T17:18:19.960Z,99716.22
2022-08-25T17:21:00.832Z,99712.72
2022-08-25T17:23:31.978Z,99713.47
2022-08-25T17:26:02.471Z,99718.22
2022-08-25T17:28:33.260Z,99726.03
2022-08-25T17:31:04.913Z,99727.63
2022-08-25T17:33:35.913Z,99728.00
2022-08-25T17:36:15.286Z,99728.38
2022-08-25T17:38:53.236Z,99731.53
2022-08-25T17:41:22.949Z,99736.22
2022-08-25T17:43:57.791Z,99733.84
2022-08-25T17:46:27.186Z,99743.22
2022-08-25T17:48:54.472Z,99740.03
2022-08-25T17:51:25.081Z,99740.78
2022-08-25T17:53:56.613Z,99749.44
2022-08-25T17:56:27.859Z,99748.63
2022-08-25T17:58:56.169Z,99750.19
2022-08-25T18:01:27.826Z,99756.84
2022-08-25T18:03:56.092Z,99752.13
2022-08-25T18:06:28.119Z,99751.75
2022-08-25T18:08:59.990Z,99750.94
2022-08-25T18:11:34.678Z,99751.72
2022-08-25T18:14:05.359Z,99754.09
2022-08-25T18:16:32.857Z,99760.34
2022-08-25T18:19:01.933Z,99756.81
2022-08-25T18:21:31.616Z,99764.16
2022-08-25T18:23:59.145Z,99759.44
2022-08-25T18:26:33.507Z,99760.22
2022-08-25T18:29:01.371Z,99763.34
2022-08-25T18:31:29.732Z,99764.09
2022-08-25T18:34:01.112Z,99765.53
2022-08-25T18:36:32.810Z,99769.06
2022-08-25T18:39:13.680Z,99771.03
2022-08-25T18:41:41.901Z,99778.78
2022-08-25T18:44:12.926Z,99778.72
2022-08-25T18:46:52.117Z,99783.94
2022-08-25T18:49:21.543Z,99778.78
2022-08-25T18:52:00.920Z,99784.28
2022-08-25T18:54:28.315Z,99780.72
2022-08-25T18:56:58.358Z,99790.13
2022-08-25T18:59:29.121Z,99789.34
2022-08-25T19:02:03.239Z,99788.19
2022-08-25T19:04:33.564Z,99792.88
2022-08-25T19:07:01.658Z,99796.09
2022-08-25T19:09:29.455Z,99787.53
2022-08-25T19:11:59.167Z,99792.09
2022-08-25T19:14:31.068Z,99797.94
2022-08-25T19:16:59.029Z,99788.94
2022-08-25T19:19:27.038Z,99790.50
2022-08-25T19:21:54.490Z,99794.41
2022-08-25T19:24:22.311Z,99792.03
2022-08-25T19:26:59.201Z,99785.03
2022-08-25T19:29:30.818Z,99794.44
2022-08-25T19:32:03.219Z,99793.69
2022-08-25T19:37:25.612Z,99797.56
2022-08-25T19:40:05.131Z,99798.28
2022-08-25T19:45:21.935Z,99797.41
2022-08-25T19:47:59.643Z,99800.88
2022-08-25T19:53:26.105Z,99801.34
2022-08-25T19:55:55.668Z,99797.03
2022-08-25T19:58:26.859Z,99804.50
2022-08-25T20:00:54.306Z,99801.34
2022-08-25T20:03:22.030Z,99798.13
2022-08-25T20:05:53.223Z,99802.16
2022-08-25T20:08:28.133Z,99797.69
2022-08-25T20:10:57.722Z,99799.66
2022-08-25T20:13:27.867Z,99788.22
2022-08-25T20:15:58.857Z,99795.69
2022-08-25T20:18:26.320Z,99795.94
2022-08-25T20:20:53.792Z,99793.31
2022-08-25T20:23:22.777Z,99792.94
2022-08-25T20:25:50.498Z,99785.91
2022-08-25T20:28:18.957Z,99796.31
2022-08-25T20:30:46.528Z,99799.84
2022-08-25T20:33:13.955Z,99798.69
2022-08-25T20:35:50.608Z,99793.75
2022-08-25T20:38:26.297Z,99801.47
2022-08-25T20:40:53.514Z,99795.03
2022-08-25T20:43:20.943Z,99794.59
2022-08-25T20:45:48.493Z,99789.72
2022-08-25T20:48:22.763Z,99793.50
2022-08-25T20:50:57.414Z,99798.56
2022-08-25T20:53:25.643Z,99793.13
2022-08-25T20:55:53.385Z,99800.81
2022-08-25T20:58:23.712Z,99800.69
2022-08-25T21:00:59.796Z,99794.06
2022-08-25T21:03:27.062Z,99795.09
2022-08-25T21:06:01.377Z,99797.53
2022-08-25T21:08:31.110Z,99799.97
2022-08-25T21:10:58.548Z,99804.38
2022-08-25T21:13:27.550Z,99807.34
2022-08-25T21:16:03.966Z,99796.47
2022-08-25T21:18:36.207Z,99797.31
2022-08-25T21:21:08.556Z,99794.97
2022-08-25T21:23:37.136Z,99789.56
2022-08-25T21:26:11.888Z,99795.75
2022-08-25T21:28:39.120Z,99796.19
2022-08-25T21:31:16.718Z,99802.78
2022-08-25T21:33:44.818Z,99797.91
2022-08-25T21:36:16.210Z,99800.97
2022-08-25T21:38:43.546Z,99800.03
2022-08-25T21:41:13.641Z,99809.94
2022-08-25T21:43:41.466Z,99806.34
2022-08-25T21:46:16.728Z,99816.00
2022-08-25T21:48:47.914Z,99795.94
2022-08-25T21:51:23.944Z,99800.13
2022-08-25T21:53:58.118Z,99804.63
2022-08-25T21:56:26.375Z,99796.00
2022-08-25T21:59:00.507Z,99795.31
2022-08-25T22:01:31.758Z,99788.41
2022-08-25T22:04:06.485Z,99794.03
2022-08-25T22:06:36.724Z,99788.22
2022-08-25T22:09:07.593Z,99790.56
2022-08-25T22:11:41.874Z,99783.34
2022-08-25T22:14:10.635Z,99784.31
2022-08-25T22:16:38.498Z,99786.06
2022-08-25T22:19:07.082Z,99782.72
2022-08-25T22:21:34.874Z,99782.25
2022-08-25T22:24:02.225Z,99784.25
2022-08-25T22:26:32.618Z,99785.38
2022-08-25T22:29:00.337Z,99777.75
2022-08-25T22:31:33.783Z,99782.41
2022-08-25T22:34:04.363Z,99779.56
2022-08-25T22:36:39.493Z,99776.19
2022-08-25T22:39:07.978Z,99773.44
2022-08-25T22:41:37.704Z,99769.69
2022-08-25T22:44:12.185Z,99767.06
2022-08-25T22:46:42.287Z,99763.22
2022-08-25T22:49:15.851Z,99769.47
2022-08-25T22:54:56.198Z,99773.34
2022-08-25T22:57:38.362Z,99767.34
2022-08-25T23:00:25.787Z,99761.50
2022-08-25T23:02:56.842Z,99757.56
2022-08-25T23:08:39.091Z,99758.78
2022-08-25T23:11:20.576Z,99756.44
2022-08-25T23:14:08.177Z,99751.31
2022-08-25T23:19:42.486Z,99751.44
2022-08-25T23:22:35.247Z,99759.00
2022-08-25T23:25:12.765Z,99752.78
2022-08-25T23:27:51.599Z,99758.31
2022-08-25T23:30:38.474Z,99753.50
2022-08-25T23:33:19.909Z,99748.91
2022-08-25T23:36:10.493Z,99753.50
2022-08-25T23:41:27.800Z,99746.84
2022-08-25T23:44:09.177Z,99750.44
2022-08-25T23:46:49.163Z,99751.16
2022-08-25T23:52:18.467Z,99749.38
2022-08-25T23:57:51.648Z,99744.59
